createdAt,value
2022-09-27T00:00:44.525Z,9.02
2022-09-27T00:03:16.794Z,9.35
2022-09-27T00:05:48.929Z,8.82
2022-09-27T00:08:20.999Z,9.27
2022-09-27T00:11:13.813Z,9.48
2022-09-27T00:13:46.322Z,8.50
2022-09-27T00:16:18.695Z,10.02
2022-09-27T00:18:51.001Z,11.07
2022-09-27T00:21:23.390Z,9.70
2022-09-27T00:23:55.696Z,9.90
2022-09-27T00:26:29.449Z,10.40
2022-09-27T00:29:11.721Z,10.70
2022-09-27T00:31:44.398Z,11.80
2022-09-27T00:34:25.720Z,11.32
2022-09-27T00:36:58.037Z,12.77
2022-09-27T00:39:30.282Z,12.32
2022-09-27T00:42:02.705Z,13.57
2022-09-27T00:44:38.782Z,13.20
2022-09-27T00:47:25.704Z,13.57
2022-09-27T00:50:11.012Z,16.40
2022-09-27T00:53:09.874Z,15.27
2022-09-27T00:55:59.598Z,16.20
2022-09-27T00:58:39.961Z,15.93
2022-09-27T01:04:16.689Z,17.42
2022-09-27T01:06:49.209Z,17.98
2022-09-27T01:09:22.425Z,20.50
2022-09-27T01:12:12.612Z,20.33
2022-09-27T01:15:22.403Z,19.95
2022-09-27T01:18:36.432Z,18.73
2022-09-27T01:21:29.338Z,20.20
2022-09-27T01:24:28.661Z,18.45
2022-09-27T01:27:03.274Z,18.08
2022-09-27T01:29:57.435Z,19.45
2022-09-27T01:32:45.133Z,17.60
2022-09-27T01:35:28.597Z,16.60
2022-09-27T01:38:56.944Z,16.45
2022-09-27T01:41:43.507Z,16.05
2022-09-27T01:44:25.398Z,15.82
2022-09-27T01:47:06.009Z,13.60
2022-09-27T01:50:07.579Z,14.38
2022-09-27T01:52:51.693Z,14.80
2022-09-27T01:55:28.933Z,13.80
2022-09-27T01:58:39.512Z,13.80
2022-09-27T02:01:14.460Z,11.52
2022-09-27T02:03:51.855Z,11.63
2022-09-27T02:06:33.460Z,11.85
2022-09-27T02:09:29.710Z,11.15
2022-09-27T02:12:08.758Z,10.55
2022-09-27T02:15:10.821Z,10.45
2022-09-27T02:18:13.430Z,8.73
2022-09-27T02:20:52.303Z,9.60
2022-09-27T02:23:36.535Z,8.60
2022-09-27T02:26:42.244Z,7.47
2022-09-27T02:29:22.187Z,7.72
2022-09-27T02:31:54.233Z,7.68
2022-09-27T02:34:29.769Z,8.18
2022-09-27T02:37:01.862Z,7.55
2022-09-27T02:39:33.955Z,6.43
2022-09-27T02:42:07.090Z,6.60
2022-09-27T02:44:39.395Z,6.60
2022-09-27T02:47:44.113Z,5.35
2022-09-27T02:50:28.474Z,7.90
2022-09-27T02:53:09.042Z,5.25
2022-09-27T02:56:22.367Z,5.07
2022-09-27T02:59:21.709Z,4.53
2022-09-27T03:02:27.902Z,4.07
2022-09-27T03:05:11.165Z,5.53
2022-09-27T03:07:43.521Z,3.50
2022-09-27T03:10:23.873Z,3.92
2022-09-27T03:15:29.434Z,3.40
2022-09-27T03:18:02.344Z,3.58
2022-09-27T03:20:34.642Z,3.33
2022-09-27T03:23:06.607Z,3.50
2022-09-27T03:25:38.558Z,3.20
2022-09-27T03:28:10.853Z,2.80
2022-09-27T03:30:43.024Z,2.75
2022-09-27T03:33:15.063Z,2.55
2022-09-27T03:35:47.026Z,2.30
2022-09-27T03:38:19.012Z,2.28
2022-09-27T03:40:51.011Z,2.30
2022-09-27T03:43:23.068Z,2.15
2022-09-27T03:45:55.149Z,2.10
2022-09-27T03:48:28.282Z,2.03
2022-09-27T03:51:00.381Z,2.72
2022-09-27T03:53:32.334Z,1.90
2022-09-27T03:56:04.579Z,2.08
2022-09-27T03:58:36.593Z,2.22
2022-09-27T04:01:09.025Z,2.50
2022-09-27T04:03:41.191Z,3.30
2022-09-27T04:06:14.073Z,4.53
2022-09-27T04:08:47.535Z,3.08
2022-09-27T04:11:19.437Z,3.80
2022-09-27T04:13:51.505Z,3.97
2022-09-27T04:16:23.789Z,3.70
2022-09-27T04:18:55.863Z,5.35
2022-09-27T04:21:28.687Z,5.28
2022-09-27T04:24:00.926Z,4.78
2022-09-27T04:26:32.863Z,5.85
2022-09-27T04:29:04.889Z,5.72
2022-09-27T04:31:38.042Z,6.00
2022-09-27T04:34:10.496Z,5.30
2022-09-27T04:36:42.420Z,5.63
2022-09-27T04:39:15.389Z,6.57
2022-09-27T04:41:47.470Z,8.07
2022-09-27T04:44:19.427Z,8.43
2022-09-27T04:46:51.322Z,7.18
2022-09-27T04:49:23.305Z,8.35
2022-09-27T04:51:56.174Z,7.28
2022-09-27T04:54:28.329Z,6.72
2022-09-27T04:57:00.349Z,6.53
2022-09-27T04:59:32.332Z,6.88
2022-09-27T05:02:04.520Z,6.57
2022-09-27T05:04:36.487Z,5.45
2022-09-27T05:07:08.454Z,5.55
2022-09-27T05:09:40.695Z,5.22
2022-09-27T05:12:13.803Z,5.93
2022-09-27T05:14:46.108Z,5.43
2022-09-27T05:17:18.826Z,6.45
2022-09-27T05:19:51.250Z,5.30
2022-09-27T05:22:23.174Z,4.97
2022-09-27T05:24:55.165Z,4.80
2022-09-27T05:27:27.162Z,4.82
2022-09-27T05:30:02.040Z,4.35
2022-09-27T05:32:35.024Z,4.55
2022-09-27T05:35:07.728Z,4.70
2022-09-27T05:37:40.718Z,5.13
2022-09-27T05:40:36.459Z,4.75
2022-09-27T05:43:05.142Z,5.68
2022-09-27T05:45:37.148Z,5.45
2022-09-27T05:48:09.264Z,5.20
2022-09-27T05:50:41.561Z,5.50
2022-09-27T05:53:13.854Z,5.22
2022-09-27T05:55:45.801Z,5.18
2022-09-27T05:58:17.804Z,5.07
2022-09-27T06:00:49.907Z,6.07
2022-09-27T06:03:21.917Z,5.60
2022-09-27T06:05:53.947Z,5.13
2022-09-27T06:08:25.917Z,5.60
2022-09-27T06:11:05.986Z,5.03
2022-09-27T06:13:39.047Z,5.25
2022-09-27T06:16:12.242Z,5.43
2022-09-27T06:18:44.183Z,5.60
2022-09-27T06:21:16.113Z,6.07
2022-09-27T06:23:52.030Z,5.25
2022-09-27T06:26:29.594Z,4.93
2022-09-27T06:29:01.584Z,4.85
2022-09-27T06:31:33.501Z,5.10
2022-09-27T06:34:05.456Z,5.22
2022-09-27T06:36:37.432Z,5.65
2022-09-27T06:39:09.511Z,5.30
2022-09-27T06:41:41.966Z,5.07
2022-09-27T06:44:14.591Z,5.03
2022-09-27T06:46:46.547Z,4.38
2022-09-27T06:49:19.988Z,4.75
2022-09-27T06:51:52.822Z,4.18
2022-09-27T06:54:24.768Z,5.47
2022-09-27T06:57:01.638Z,4.13
2022-09-27T06:59:52.705Z,3.97
2022-09-27T07:02:25.791Z,3.47
2022-09-27T07:04:59.078Z,3.47
2022-09-27T07:07:31.134Z,2.85
2022-09-27T07:10:07.615Z,2.72
2022-09-27T07:12:41.715Z,3.03
2022-09-27T07:15:13.816Z,3.05
2022-09-27T07:17:45.813Z,2.58
2022-09-27T07:20:18.667Z,2.20
2022-09-27T07:22:50.897Z,2.53
2022-09-27T07:25:23.820Z,2.13
2022-09-27T07:28:02.382Z,2.00
2022-09-27T07:30:37.381Z,1.98
2022-09-27T07:33:10.753Z,3.65
2022-09-27T07:35:43.890Z,2.70
2022-09-27T07:38:16.595Z,2.33
2022-09-27T07:40:48.648Z,1.70
2022-09-27T07:43:20.841Z,1.85
2022-09-27T07:45:56.706Z,1.60
2022-09-27T07:48:28.762Z,1.63
2022-09-27T07:51:00.702Z,1.85
2022-09-27T07:53:32.646Z,2.00
2022-09-27T07:56:04.708Z,1.80
2022-09-27T07:58:36.637Z,1.60
2022-09-27T08:01:08.746Z,1.73
2022-09-27T08:03:40.673Z,1.20
2022-09-27T08:06:13.300Z,3.47
2022-09-27T08:08:45.855Z,1.70
2022-09-27T08:11:19.106Z,1.30
2022-09-27T08:13:52.772Z,1.50
2022-09-27T08:16:24.756Z,1.48
2022-09-27T08:18:56.704Z,1.33
2022-09-27T08:21:28.907Z,1.65
2022-09-27T08:24:01.379Z,1.77
2022-09-27T08:26:33.345Z,1.20
2022-09-27T08:29:05.546Z,1.40
2022-09-27T08:31:37.566Z,1.25
2022-09-27T08:34:09.641Z,1.30
2022-09-27T08:36:43.971Z,1.27
2022-09-27T08:39:16.426Z,1.15
2022-09-27T08:42:19.077Z,1.20
2022-09-27T08:45:26.324Z,1.80
2022-09-27T08:48:04.143Z,1.27
2022-09-27T08:50:41.990Z,1.45
2022-09-27T08:53:30.990Z,1.35
2022-09-27T08:56:03.881Z,1.30
2022-09-27T08:58:41.682Z,1.25
2022-09-27T09:01:17.919Z,1.48
2022-09-27T09:03:56.294Z,1.33
2022-09-27T09:06:44.554Z,1.35
2022-09-27T09:09:46.963Z,1.48
2022-09-27T09:12:50.069Z,1.45
2022-09-27T09:16:00.109Z,1.02
2022-09-27T09:18:39.051Z,1.20
2022-09-27T09:21:38.678Z,0.93
2022-09-27T09:24:32.575Z,1.60
2022-09-27T09:27:28.109Z,1.60
2022-09-27T09:33:11.186Z,1.65
2022-09-27T09:35:50.860Z,1.67
2022-09-27T09:38:45.086Z,1.42
2022-09-27T09:41:30.315Z,1.25
2022-09-27T09:44:15.116Z,1.67
2022-09-27T09:46:53.598Z,1.58
2022-09-27T09:49:45.291Z,1.35
2022-09-27T09:52:20.148Z,1.27
2022-09-27T09:54:57.915Z,3.17
2022-09-27T09:57:41.346Z,1.73
2022-09-27T10:00:19.160Z,1.58
2022-09-27T10:02:55.462Z,1.60
2022-09-27T10:05:29.036Z,1.65
2022-09-27T10:08:08.466Z,1.52
2022-09-27T10:10:40.630Z,1.63
2022-09-27T10:13:20.230Z,1.55
2022-09-27T10:16:14.790Z,1.60
2022-09-27T10:18:50.330Z,1.73
2022-09-27T10:21:27.329Z,2.05
2022-09-27T10:24:18.619Z,1.85
2022-09-27T10:26:52.021Z,1.52
2022-09-27T10:29:36.361Z,1.50
2022-09-27T10:32:25.669Z,1.90
2022-09-27T10:35:29.658Z,1.85
2022-09-27T10:38:22.982Z,1.60
2022-09-27T10:40:58.884Z,1.90
2022-09-27T10:43:36.633Z,1.70
2022-09-27T10:46:32.117Z,2.35
2022-09-27T10:49:31.316Z,1.77
2022-09-27T10:52:10.589Z,1.50
2022-09-27T10:54:53.269Z,2.15
2022-09-27T10:57:28.733Z,1.63
2022-09-27T11:00:09.110Z,1.38
2022-09-27T11:05:31.845Z,1.10
2022-09-27T11:08:24.223Z,1.90
2022-09-27T11:11:14.039Z,1.77
2022-09-27T11:14:04.974Z,1.42
2022-09-27T11:16:47.317Z,1.55
2022-09-27T11:19:48.541Z,1.85
2022-09-27T11:23:04.835Z,1.50
2022-09-27T11:25:58.297Z,1.92
2022-09-27T11:29:07.969Z,2.35
2022-09-27T11:32:02.614Z,2.20
2022-09-27T11:35:32.589Z,3.92
2022-09-27T11:38:52.240Z,2.47
2022-09-27T11:41:30.145Z,2.05
2022-09-27T11:47:35.521Z,1.95
2022-09-27T11:50:28.583Z,1.92
2022-09-27T11:53:26.021Z,2.20
2022-09-27T11:56:31.930Z,2.28
2022-09-27T11:59:03.844Z,2.00
2022-09-27T12:02:01.082Z,2.13
2022-09-27T12:04:59.535Z,2.35
2022-09-27T12:07:48.090Z,2.08
2022-09-27T12:10:21.720Z,2.90
2022-09-27T12:12:58.008Z,2.83
2022-09-27T12:15:35.092Z,3.13
2022-09-27T12:18:28.616Z,2.47
2022-09-27T12:21:03.281Z,2.75
2022-09-27T12:23:57.936Z,2.83
2022-09-27T12:26:44.492Z,2.80
2022-09-27T12:29:32.309Z,2.47
2022-09-27T12:32:27.038Z,2.42
2022-09-27T12:35:27.850Z,3.28
2022-09-27T12:38:05.499Z,2.08
2022-09-27T12:40:55.822Z,2.83
2022-09-27T12:46:30.407Z,2.17
2022-09-27T12:49:11.501Z,1.80
2022-09-27T12:52:08.726Z,2.30
2022-09-27T12:55:24.135Z,3.05
2022-09-27T12:58:20.443Z,2.50
2022-09-27T13:01:24.152Z,2.30
2022-09-27T13:04:10.376Z,2.30
2022-09-27T13:07:24.091Z,3.55
2022-09-27T13:10:31.280Z,2.35
2022-09-27T13:13:06.057Z,2.80
2022-09-27T13:15:39.933Z,2.67
2022-09-27T13:18:36.846Z,4.53
2022-09-27T13:21:10.454Z,3.05
2022-09-27T13:23:42.274Z,3.45
2022-09-27T13:26:32.858Z,2.90
2022-09-27T13:29:25.446Z,1.77
2022-09-27T13:31:57.963Z,1.65
2022-09-27T13:34:42.955Z,1.70
2022-09-27T13:37:38.753Z,2.30
2022-09-27T13:40:16.488Z,2.75
2022-09-27T13:43:28.252Z,2.25
2022-09-27T13:46:10.839Z,2.60
2022-09-27T13:49:02.109Z,1.67
2022-09-27T13:51:48.506Z,2.15
2022-09-27T13:54:52.346Z,1.20
2022-09-27T13:57:43.243Z,1.38
2022-09-27T14:00:32.529Z,0.77
2022-09-27T14:03:23.604Z,1.30
2022-09-27T14:06:07.868Z,1.42
2022-09-27T14:08:57.000Z,1.60
2022-09-27T14:11:35.130Z,1.23
2022-09-27T14:14:15.695Z,1.95
2022-09-27T14:16:47.875Z,2.63
2022-09-27T14:19:23.093Z,4.25
2022-09-27T14:21:56.130Z,2.33
2022-09-27T14:24:31.240Z,2.50
2022-09-27T14:27:14.212Z,3.10
2022-09-27T14:29:54.440Z,2.88
2022-09-27T14:32:31.666Z,2.90
2022-09-27T14:35:39.179Z,2.50
2022-09-27T14:38:36.715Z,1.83
2022-09-27T14:41:10.070Z,1.60
2022-09-27T14:43:45.976Z,1.30
2022-09-27T14:46:32.382Z,1.25
2022-09-27T14:49:23.848Z,1.27
2022-09-27T14:51:56.844Z,1.38
2022-09-27T14:54:33.166Z,1.40
2022-09-27T14:57:07.732Z,1.13
2022-09-27T14:59:44.634Z,1.52
2022-09-27T15:02:22.328Z,1.10
2022-09-27T15:04:55.505Z,1.08
2022-09-27T15:07:27.911Z,1.00
2022-09-27T15:09:59.926Z,1.52
2022-09-27T15:12:32.259Z,1.27
2022-09-27T15:15:07.151Z,3.28
2022-09-27T15:17:44.110Z,1.90
2022-09-27T15:20:35.208Z,2.25
2022-09-27T15:23:07.621Z,0.98
2022-09-27T15:25:44.554Z,1.42
2022-09-27T15:28:19.645Z,1.02
2022-09-27T15:30:58.470Z,1.33
2022-09-27T15:33:35.830Z,1.90
2022-09-27T15:36:11.074Z,1.77
2022-09-27T15:38:47.672Z,1.10
2022-09-27T15:41:21.290Z,0.82
2022-09-27T15:43:53.504Z,2.38
2022-09-27T15:46:38.648Z,3.15
2022-09-27T15:49:33.758Z,1.67
2022-09-27T15:52:05.686Z,2.08
2022-09-27T15:54:37.771Z,1.70
2022-09-27T15:57:12.528Z,1.10
2022-09-27T15:59:44.438Z,1.48
2022-09-27T16:02:19.453Z,1.17
2022-09-27T16:04:51.521Z,1.23
2022-09-27T16:07:23.583Z,1.35
2022-09-27T16:09:55.676Z,1.30
2022-09-27T16:12:30.262Z,1.85
2022-09-27T16:15:02.183Z,3.08
2022-09-27T16:17:37.869Z,2.75
2022-09-27T16:20:26.522Z,1.67
2022-09-27T16:22:59.107Z,2.08
2022-09-27T16:25:31.254Z,1.85
2022-09-27T16:28:05.490Z,1.52
2022-09-27T16:30:37.386Z,2.47
2022-09-27T16:33:09.439Z,2.15
2022-09-27T16:35:41.553Z,2.70
2022-09-27T16:38:13.499Z,2.38
2022-09-27T16:40:45.435Z,1.77
2022-09-27T16:43:17.443Z,3.10
2022-09-27T16:45:49.392Z,1.50
2022-09-27T16:48:21.453Z,2.13
2022-09-27T16:51:12.099Z,1.73
2022-09-27T16:53:44.243Z,1.30
2022-09-27T16:56:20.531Z,1.52
2022-09-27T16:58:53.495Z,1.75
2022-09-27T17:01:28.852Z,2.03
2022-09-27T17:04:01.173Z,1.05
2022-09-27T17:06:33.094Z,1.77
2022-09-27T17:09:05.492Z,2.53
2022-09-27T17:11:37.588Z,3.88
2022-09-27T17:14:17.440Z,1.77
2022-09-27T17:16:57.956Z,2.22
2022-09-27T17:22:02.176Z,1.38
2022-09-27T17:24:35.637Z,1.45
2022-09-27T17:27:07.566Z,1.60
2022-09-27T17:29:39.667Z,1.10
2022-09-27T17:32:13.759Z,1.33
2022-09-27T17:34:45.743Z,2.10
2022-09-27T17:37:17.869Z,1.60
2022-09-27T17:39:49.862Z,1.42
2022-09-27T17:42:23.546Z,1.58
2022-09-27T17:44:55.481Z,1.88
2022-09-27T17:47:46.872Z,1.95
2022-09-27T17:50:24.785Z,2.00
2022-09-27T17:52:58.934Z,2.15
2022-09-27T17:55:30.977Z,1.60
2022-09-27T17:58:04.007Z,1.55
2022-09-27T18:00:35.990Z,2.10
2022-09-27T18:03:08.181Z,1.52
2022-09-27T18:05:40.248Z,1.40
2022-09-27T18:08:12.196Z,1.92
2022-09-27T18:10:44.149Z,1.70
2022-09-27T18:13:16.184Z,1.48
2022-09-27T18:15:59.679Z,1.63
2022-09-27T18:18:34.245Z,1.70
2022-09-27T18:21:16.789Z,1.70
2022-09-27T18:23:54.542Z,1.70
2022-09-27T18:26:29.453Z,1.60
2022-09-27T18:29:08.043Z,1.85
2022-09-27T18:31:42.835Z,2.20
2022-09-27T18:34:20.276Z,2.72
2022-09-27T18:36:52.444Z,2.13
2022-09-27T18:39:24.375Z,2.20
2022-09-27T18:41:56.754Z,2.00
2022-09-27T18:44:28.641Z,2.10
2022-09-27T18:47:00.724Z,2.10
2022-09-27T18:49:34.220Z,1.98
2022-09-27T18:52:06.385Z,2.08
2022-09-27T18:54:40.473Z,2.03
2022-09-27T18:57:12.403Z,2.00
2022-09-27T18:59:46.273Z,1.90
2022-09-27T19:02:18.270Z,1.73
2022-09-27T19:04:50.427Z,1.70
2022-09-27T19:07:22.333Z,2.03
2022-09-27T19:09:54.214Z,2.60
2022-09-27T19:12:27.053Z,1.50
2022-09-27T19:14:59.012Z,2.05
2022-09-27T19:17:30.998Z,1.80
2022-09-27T19:20:04.678Z,2.20
2022-09-27T19:22:36.633Z,2.10
2022-09-27T19:25:09.846Z,2.55
2022-09-27T19:27:43.294Z,1.77
2022-09-27T19:30:15.543Z,2.10
2022-09-27T19:32:47.807Z,2.10
2022-09-27T19:35:20.038Z,1.67
2022-09-27T19:37:52.351Z,2.17
2022-09-27T19:40:24.340Z,2.15
2022-09-27T19:42:56.341Z,1.90
2022-09-27T19:45:28.263Z,1.80
2022-09-27T19:48:00.356Z,2.17
2022-09-27T19:50:32.266Z,1.88
2022-09-27T19:53:04.199Z,2.15
2022-09-27T19:55:36.238Z,2.50
2022-09-27T19:58:08.167Z,2.10
2022-09-27T20:00:40.065Z,2.10
2022-09-27T20:03:12.016Z,2.15
2022-09-27T20:05:52.238Z,1.77
2022-09-27T20:08:25.111Z,2.47
2022-09-27T20:11:06.449Z,1.95
2022-09-27T20:13:40.116Z,2.00
2022-09-27T20:16:18.826Z,2.20
2022-09-27T20:18:59.230Z,2.33
2022-09-27T20:24:05.888Z,2.55
2022-09-27T20:26:38.828Z,2.00
2022-09-27T20:29:11.311Z,2.13
2022-09-27T20:32:03.003Z,2.15
2022-09-27T20:34:35.620Z,2.03
2022-09-27T20:37:07.766Z,2.30
2022-09-27T20:39:40.038Z,2.20
2022-09-27T20:42:12.039Z,2.78
2022-09-27T20:44:43.990Z,2.47
2022-09-27T20:47:16.329Z,2.60
2022-09-27T20:49:48.261Z,2.25
2022-09-27T20:52:20.328Z,2.78
2022-09-27T20:54:52.252Z,2.63
2022-09-27T20:57:46.245Z,3.00
2022-09-27T21:00:17.751Z,2.95
2022-09-27T21:02:49.998Z,3.17
2022-09-27T21:05:22.547Z,2.92
2022-09-27T21:07:55.214Z,3.33
2022-09-27T21:10:27.138Z,3.05
2022-09-27T21:12:59.387Z,3.08
2022-09-27T21:15:32.018Z,3.28
2022-09-27T21:18:04.186Z,2.72
2022-09-27T21:20:36.189Z,3.28
2022-09-27T21:23:08.060Z,4.65
2022-09-27T21:25:40.000Z,3.13
2022-09-27T21:28:12.109Z,2.65
2022-09-27T21:30:44.023Z,2.78
2022-09-27T21:33:15.918Z,2.80
2022-09-27T21:35:50.998Z,3.38
2022-09-27T21:38:23.055Z,3.13
2022-09-27T21:41:03.501Z,3.30
2022-09-27T21:46:23.848Z,3.30
2022-09-27T21:49:01.951Z,4.78
2022-09-27T21:51:39.497Z,3.72
2022-09-27T21:54:14.876Z,3.97
2022-09-27T21:56:46.907Z,4.10
2022-09-27T21:59:18.962Z,3.88
2022-09-27T22:01:51.073Z,3.53
2022-09-27T22:04:23.031Z,3.50
2022-09-27T22:06:55.003Z,3.60
2022-09-27T22:09:26.958Z,3.78
2022-09-27T22:11:58.872Z,3.78
2022-09-27T22:14:30.809Z,4.25
2022-09-27T22:17:02.902Z,3.45
2022-09-27T22:19:34.802Z,3.90
2022-09-27T22:22:06.759Z,3.80
2022-09-27T22:24:38.761Z,3.45
2022-09-27T22:27:10.669Z,3.60
2022-09-27T22:29:42.533Z,3.45
2022-09-27T22:32:14.435Z,3.63
2022-09-27T22:34:46.551Z,3.90
2022-09-27T22:37:18.443Z,3.90
2022-09-27T22:39:50.406Z,3.67
2022-09-27T22:42:23.311Z,4.05
2022-09-27T22:44:55.250Z,4.10
2022-09-27T22:47:27.210Z,4.53
2022-09-27T22:49:59.107Z,4.25
2022-09-27T22:52:31.044Z,4.70
2022-09-27T22:55:03.017Z,4.38
2022-09-27T22:57:34.932Z,4.90
2022-09-27T23:00:07.919Z,5.00
2022-09-27T23:02:39.827Z,4.63
2022-09-27T23:05:11.728Z,4.22
2022-09-27T23:07:47.373Z,4.57
2022-09-27T23:10:21.796Z,5.25
2022-09-27T23:12:58.352Z,4.47
2022-09-27T23:15:30.549Z,4.60
2022-09-27T23:18:02.473Z,4.28
2022-09-27T23:20:34.597Z,4.78
2022-09-27T23:23:13.020Z,4.30
2022-09-27T23:25:44.956Z,4.68
2022-09-27T23:28:16.892Z,4.45
2022-09-27T23:30:49.014Z,4.95
2022-09-27T23:33:22.064Z,4.30
2022-09-27T23:35:54.030Z,4.65
2022-09-27T23:38:29.346Z,4.60
2022-09-27T23:41:01.372Z,4.85
2022-09-27T23:43:33.490Z,4.60
2022-09-27T23:46:07.400Z,4.38
2022-09-27T23:48:40.097Z,5.28
2022-09-27T23:51:12.829Z,5.40
2022-09-27T23:53:44.769Z,5.55
2022-09-27T23:56:18.435Z,5.20
2022-09-27T23:58:50.437Z,5.40
